createdAt,value
2023-12-29T00:02:30.028Z,22.83
2023-12-29T00:05:31.866Z,23.20
2023-12-29T00:08:33.815Z,22.80
2023-12-29T00:11:35.487Z,20.17
2023-12-29T00:14:37.130Z,24.25
2023-12-29T00:17:41.134Z,18.73
2023-12-29T00:20:42.935Z,21.50
2023-12-29T00:23:44.963Z,21.35
2023-12-29T00:26:47.204Z,26.42
2023-12-29T00:29:49.080Z,23.05
2023-12-29T00:32:50.753Z,18.60
2023-12-29T00:35:52.339Z,24.80
2023-12-29T00:38:53.979Z,23.45
2023-12-29T00:41:56.142Z,23.65
2023-12-29T00:44:57.920Z,25.33
2023-12-29T00:47:59.804Z,21.88
2023-12-29T00:51:01.643Z,21.08
2023-12-29T00:54:03.246Z,23.83
2023-12-29T00:57:04.868Z,23.58
2023-12-29T01:00:06.512Z,22.45
2023-12-29T01:03:08.516Z,20.63
2023-12-29T01:06:10.495Z,21.75
2023-12-29T01:09:13.263Z,27.65
2023-12-29T01:12:16.269Z,17.67
2023-12-29T01:15:20.838Z,19.65
2023-12-29T01:18:22.511Z,21.27
2023-12-29T01:21:24.314Z,21.75
2023-12-29T01:24:32.938Z,21.80
2023-12-29T01:27:37.839Z,19.73
2023-12-29T01:30:39.786Z,24.63
2023-12-29T01:33:41.605Z,29.05
2023-12-29T01:36:43.481Z,23.10
2023-12-29T01:39:45.470Z,27.05
2023-12-29T01:42:47.098Z,24.58
2023-12-29T01:45:55.713Z,22.25
2023-12-29T01:48:59.950Z,23.52
2023-12-29T01:52:01.729Z,24.17
2023-12-29T01:55:03.450Z,21.00
2023-12-29T01:58:05.587Z,18.73
2023-12-29T02:01:07.989Z,22.95
2023-12-29T02:04:10.014Z,29.30
2023-12-29T02:07:11.795Z,26.25
2023-12-29T02:10:16.950Z,24.98
2023-12-29T02:13:18.789Z,20.98
2023-12-29T02:16:20.482Z,22.33
2023-12-29T02:19:22.486Z,30.13
2023-12-29T02:22:24.250Z,20.30
2023-12-29T02:25:25.858Z,26.70
2023-12-29T02:28:27.791Z,19.85
2023-12-29T02:31:29.555Z,25.30
2023-12-29T02:34:32.034Z,25.95
2023-12-29T02:37:33.757Z,23.42
2023-12-29T02:40:35.363Z,20.52
2023-12-29T02:43:36.954Z,23.50
2023-12-29T02:46:38.690Z,24.60
2023-12-29T02:49:40.620Z,25.77
2023-12-29T02:52:42.470Z,22.40
2023-12-29T02:55:44.203Z,22.73
2023-12-29T02:58:47.179Z,28.80
2023-12-29T03:01:49.094Z,21.60
2023-12-29T03:04:50.892Z,20.05
2023-12-29T03:07:52.515Z,26.90
2023-12-29T03:10:54.106Z,19.73
2023-12-29T03:13:55.775Z,26.67
2023-12-29T03:16:58.659Z,29.05
2023-12-29T03:20:00.846Z,19.92
2023-12-29T03:23:02.629Z,23.83
2023-12-29T03:26:04.197Z,25.45
2023-12-29T03:29:05.845Z,22.00
2023-12-29T03:32:08.304Z,21.58
2023-12-29T03:35:09.990Z,21.02
2023-12-29T03:38:11.661Z,28.85
2023-12-29T03:41:13.321Z,20.10
2023-12-29T03:44:14.972Z,18.60
2023-12-29T03:47:16.587Z,29.95
2023-12-29T03:50:18.235Z,23.52
2023-12-29T03:53:20.509Z,20.88
2023-12-29T03:56:22.270Z,24.25
2023-12-29T03:59:23.872Z,23.13
2023-12-29T04:02:25.560Z,19.48
2023-12-29T04:05:27.175Z,21.75
2023-12-29T04:08:29.284Z,18.67
2023-12-29T04:11:30.926Z,26.08
2023-12-29T04:14:32.566Z,19.50
2023-12-29T04:17:34.610Z,20.90
2023-12-29T04:20:36.376Z,21.92
2023-12-29T04:23:37.960Z,18.05
2023-12-29T04:26:39.661Z,19.88
2023-12-29T04:29:41.293Z,20.55
2023-12-29T04:32:43.065Z,23.80
2023-12-29T04:35:44.682Z,21.13
2023-12-29T04:38:46.278Z,24.63
2023-12-29T04:41:47.913Z,21.42
2023-12-29T04:44:49.569Z,29.20
2023-12-29T04:47:51.111Z,22.98
2023-12-29T04:50:53.081Z,20.60
2023-12-29T04:53:54.648Z,23.48
2023-12-29T04:56:56.480Z,21.92
2023-12-29T04:59:58.134Z,19.80
2023-12-29T05:02:59.787Z,19.50
2023-12-29T05:06:01.385Z,16.35
2023-12-29T05:09:03.632Z,20.25
2023-12-29T05:12:05.208Z,28.77
2023-12-29T05:15:06.753Z,24.17
2023-12-29T05:18:08.405Z,22.38
2023-12-29T05:21:10.016Z,14.70
2023-12-29T05:24:11.717Z,25.65
2023-12-29T05:27:13.369Z,22.17
2023-12-29T05:30:15.035Z,19.67
2023-12-29T05:33:16.711Z,19.60
2023-12-29T05:36:18.544Z,14.85
2023-12-29T05:39:20.346Z,18.00
2023-12-29T05:42:22.652Z,18.70
2023-12-29T05:45:24.242Z,20.98
2023-12-29T05:48:26.045Z,22.88
2023-12-29T05:51:27.641Z,18.17
2023-12-29T05:54:29.215Z,22.77
2023-12-29T05:57:30.974Z,19.10
2023-12-29T06:00:32.706Z,20.02
2023-12-29T06:03:34.511Z,16.85
2023-12-29T06:06:36.178Z,23.27
2023-12-29T06:09:37.767Z,18.38
2023-12-29T06:12:39.517Z,21.65
2023-12-29T06:15:41.159Z,18.88
2023-12-29T06:18:43.011Z,22.33
2023-12-29T06:21:44.902Z,17.88
2023-12-29T06:24:46.670Z,21.10
2023-12-29T06:27:48.384Z,14.63
2023-12-29T06:30:50.016Z,15.95
2023-12-29T06:33:51.680Z,15.57
2023-12-29T06:36:53.293Z,15.60
2023-12-29T06:39:54.900Z,14.75
2023-12-29T06:42:56.797Z,17.30
2023-12-29T06:45:58.516Z,12.07
2023-12-29T06:49:00.259Z,11.88
2023-12-29T06:52:02.100Z,12.10
2023-12-29T06:55:03.773Z,11.45
2023-12-29T06:58:05.397Z,13.25
2023-12-29T07:01:07.065Z,9.20
2023-12-29T07:04:11.375Z,13.63
2023-12-29T07:07:13.088Z,11.23
2023-12-29T07:10:14.989Z,12.05
2023-12-29T07:13:16.751Z,13.63
2023-12-29T07:16:20.928Z,9.88
2023-12-29T07:19:22.664Z,13.38
2023-12-29T07:22:24.243Z,10.73
2023-12-29T07:25:25.894Z,12.73
2023-12-29T07:28:27.652Z,11.98
2023-12-29T07:31:29.289Z,13.93
2023-12-29T07:34:32.449Z,11.18
2023-12-29T07:37:34.193Z,13.38
2023-12-29T07:40:35.842Z,9.82
2023-12-29T07:43:37.466Z,14.15
2023-12-29T07:46:39.048Z,9.95
2023-12-29T07:49:40.770Z,9.73
2023-12-29T07:52:42.385Z,9.25
2023-12-29T07:55:44.518Z,9.10
2023-12-29T07:58:47.406Z,8.85
2023-12-29T08:01:50.356Z,8.82
2023-12-29T08:04:52.039Z,8.55
2023-12-29T08:07:53.601Z,11.05
2023-12-29T08:10:55.177Z,8.63
2023-12-29T08:13:56.759Z,7.97
2023-12-29T08:16:58.448Z,9.75
2023-12-29T08:20:00.085Z,8.20
2023-12-29T08:23:03.909Z,9.52
2023-12-29T08:26:05.545Z,8.13
2023-12-29T08:29:07.513Z,7.75
2023-12-29T08:32:09.163Z,7.50
2023-12-29T08:35:10.812Z,10.18
2023-12-29T08:38:12.937Z,10.13
2023-12-29T08:41:14.557Z,9.20
2023-12-29T08:44:16.158Z,7.93
2023-12-29T08:47:17.762Z,7.45
2023-12-29T08:50:19.395Z,11.73
2023-12-29T08:53:21.007Z,7.90
2023-12-29T08:56:24.401Z,11.80
2023-12-29T08:59:27.303Z,8.13
2023-12-29T09:02:28.864Z,7.05
2023-12-29T09:05:30.449Z,7.85
2023-12-29T09:08:32.110Z,9.43
2023-12-29T09:11:33.735Z,16.42
2023-12-29T09:14:35.655Z,8.48
2023-12-29T09:17:37.301Z,9.70
2023-12-29T09:20:39.192Z,9.60
2023-12-29T09:23:41.565Z,7.60
2023-12-29T09:26:43.285Z,8.32
2023-12-29T09:29:44.899Z,9.77
2023-12-29T09:32:46.531Z,9.90
2023-12-29T09:35:48.173Z,9.43
2023-12-29T09:38:49.855Z,9.07
2023-12-29T09:41:52.187Z,10.30
2023-12-29T09:44:53.902Z,14.27
2023-12-29T09:47:55.751Z,7.68
2023-12-29T09:50:57.498Z,7.82
2023-12-29T09:53:59.870Z,12.48
2023-12-29T09:57:01.484Z,9.82
2023-12-29T10:00:03.128Z,7.25
2023-12-29T10:03:05.115Z,8.15
2023-12-29T10:06:06.765Z,8.88
2023-12-29T10:09:08.405Z,7.60
2023-12-29T10:12:10.001Z,7.30
2023-12-29T10:15:11.618Z,11.05
2023-12-29T10:18:13.504Z,7.63
2023-12-29T10:21:15.157Z,7.40
2023-12-29T10:24:16.793Z,5.30
2023-12-29T10:27:18.404Z,10.80
2023-12-29T10:30:25.431Z,9.15
2023-12-29T10:33:33.823Z,9.48
2023-12-29T10:36:35.624Z,9.48
2023-12-29T10:39:40.414Z,11.15
2023-12-29T10:42:42.046Z,8.13
2023-12-29T10:45:43.680Z,10.55
2023-12-29T10:48:45.740Z,12.20
2023-12-29T10:51:47.420Z,9.98
2023-12-29T10:54:50.215Z,11.35
2023-12-29T10:57:51.828Z,12.60
2023-12-29T11:00:53.518Z,13.57
2023-12-29T11:03:55.174Z,13.35
2023-12-29T11:06:56.981Z,12.45
2023-12-29T11:09:58.667Z,14.10
2023-12-29T11:13:01.097Z,11.18
2023-12-29T11:16:03.009Z,10.52
2023-12-29T11:19:05.650Z,10.48
2023-12-29T11:22:07.310Z,10.80
2023-12-29T11:25:09.048Z,11.32
2023-12-29T11:28:10.767Z,13.25
2023-12-29T11:31:12.710Z,7.28
2023-12-29T11:34:14.505Z,7.80
2023-12-29T11:37:16.200Z,9.82
2023-12-29T11:40:17.888Z,8.50
2023-12-29T11:43:19.752Z,13.60
2023-12-29T11:46:21.424Z,8.35
2023-12-29T11:49:23.239Z,9.68
2023-12-29T11:52:24.997Z,15.85
2023-12-29T11:55:27.100Z,9.73
2023-12-29T11:58:30.401Z,9.60
2023-12-29T12:01:32.556Z,10.50
2023-12-29T12:04:34.229Z,9.73
2023-12-29T12:07:37.099Z,9.77
2023-12-29T12:10:41.246Z,8.00
2023-12-29T12:13:42.909Z,10.23
2023-12-29T12:16:46.332Z,9.25
2023-12-29T12:19:48.316Z,7.72
2023-12-29T12:22:49.935Z,13.23
2023-12-29T12:25:51.472Z,11.30
2023-12-29T12:28:53.028Z,12.70
2023-12-29T12:31:54.844Z,7.15
2023-12-29T12:34:56.823Z,5.85
2023-12-29T12:37:58.539Z,5.43
2023-12-29T12:41:00.217Z,5.78
2023-12-29T12:44:01.803Z,4.53
2023-12-29T12:47:03.490Z,5.35
2023-12-29T12:50:05.135Z,3.50
2023-12-29T12:53:10.608Z,4.38
2023-12-29T12:56:12.380Z,4.45
2023-12-29T12:59:14.074Z,2.35
2023-12-29T13:02:15.780Z,5.07
2023-12-29T13:05:18.109Z,5.75
2023-12-29T13:08:29.400Z,7.03
2023-12-29T13:11:35.988Z,5.57
2023-12-29T13:14:37.681Z,4.05
2023-12-29T13:17:39.323Z,4.72
2023-12-29T13:20:40.898Z,3.55
2023-12-29T13:23:42.501Z,4.50
2023-12-29T13:26:44.051Z,3.65
2023-12-29T13:29:46.231Z,4.90
2023-12-29T13:32:48.009Z,5.15
2023-12-29T13:35:54.939Z,4.03
2023-12-29T13:39:00.213Z,6.32
2023-12-29T13:42:01.853Z,4.03
2023-12-29T13:45:03.708Z,3.53
2023-12-29T13:48:05.432Z,3.78
2023-12-29T13:51:07.187Z,4.40
2023-12-29T13:54:10.580Z,5.47
2023-12-29T13:57:12.133Z,5.53
2023-12-29T14:00:13.717Z,4.70
2023-12-29T14:03:15.332Z,3.13
2023-12-29T14:06:19.867Z,4.55
2023-12-29T14:09:21.492Z,3.75
2023-12-29T14:12:23.132Z,2.45
2023-12-29T14:15:24.747Z,4.50
2023-12-29T14:18:26.480Z,3.65
2023-12-29T14:21:28.157Z,5.78
2023-12-29T14:24:29.766Z,4.28
2023-12-29T14:27:31.668Z,3.65
2023-12-29T14:30:34.974Z,5.60
2023-12-29T14:33:37.822Z,6.38
2023-12-29T14:36:39.576Z,4.07
2023-12-29T14:39:41.259Z,3.47
2023-12-29T14:42:43.024Z,4.72
2023-12-29T14:45:44.626Z,4.28
2023-12-29T14:48:46.312Z,6.63
2023-12-29T14:51:48.083Z,4.07
2023-12-29T14:54:50.536Z,3.00
2023-12-29T14:57:52.570Z,4.43
2023-12-29T15:00:54.333Z,5.43
2023-12-29T15:03:56.298Z,3.88
2023-12-29T15:06:57.996Z,5.15
2023-12-29T15:09:59.588Z,6.80
2023-12-29T15:13:01.258Z,3.75
2023-12-29T15:16:02.980Z,2.88
2023-12-29T15:19:06.562Z,4.85
2023-12-29T15:22:08.272Z,3.08
2023-12-29T15:25:10.035Z,5.82
2023-12-29T15:28:11.711Z,3.90
2023-12-29T15:31:15.324Z,3.88
2023-12-29T15:34:17.901Z,5.05
2023-12-29T15:37:22.690Z,3.67
2023-12-29T15:40:24.373Z,4.75
2023-12-29T15:43:30.240Z,4.78
2023-12-29T15:46:31.977Z,2.45
2023-12-29T15:49:33.681Z,4.45
2023-12-29T15:52:35.383Z,3.17
2023-12-29T15:55:37.036Z,7.80
2023-12-29T15:58:38.704Z,7.57
2023-12-29T16:01:41.350Z,3.55
2023-12-29T16:04:43.092Z,4.47
2023-12-29T16:07:44.736Z,6.13
2023-12-29T16:10:46.943Z,6.30
2023-12-29T16:13:48.616Z,6.22
2023-12-29T16:16:50.320Z,4.85
2023-12-29T16:19:52.021Z,4.40
2023-12-29T16:22:54.343Z,4.05
2023-12-29T16:25:55.953Z,6.55
2023-12-29T16:28:57.596Z,4.63
2023-12-29T16:31:59.171Z,6.55
2023-12-29T16:35:00.961Z,5.15
2023-12-29T16:38:02.620Z,3.65
2023-12-29T16:41:04.223Z,5.13
2023-12-29T16:44:06.943Z,4.75
2023-12-29T16:47:08.575Z,6.03
2023-12-29T16:50:10.324Z,4.57
2023-12-29T16:53:12.048Z,4.60
2023-12-29T16:56:14.393Z,5.65
2023-12-29T16:59:16.016Z,9.00
2023-12-29T17:02:17.589Z,6.63
2023-12-29T17:05:19.269Z,6.47
2023-12-29T17:08:20.936Z,8.07
2023-12-29T17:11:22.636Z,6.90
2023-12-29T17:14:24.240Z,4.95
2023-12-29T17:17:25.852Z,6.20
2023-12-29T17:20:27.685Z,5.15
2023-12-29T17:23:29.272Z,5.70
2023-12-29T17:26:31.239Z,6.95
2023-12-29T17:29:32.919Z,4.13
2023-12-29T17:32:34.501Z,5.57
2023-12-29T17:35:36.077Z,4.63
2023-12-29T17:38:37.705Z,7.93
2023-12-29T17:41:39.343Z,4.38
2023-12-29T17:44:41.007Z,7.15
2023-12-29T17:47:45.748Z,4.60
2023-12-29T17:50:47.374Z,6.63
2023-12-29T17:53:49.622Z,5.68
2023-12-29T17:56:51.258Z,4.65
2023-12-29T17:59:52.909Z,4.85
2023-12-29T18:02:54.480Z,5.40
2023-12-29T18:05:57.834Z,5.82
2023-12-29T18:08:59.709Z,6.65
2023-12-29T18:12:01.330Z,5.32
2023-12-29T18:15:03.071Z,5.80
2023-12-29T18:18:05.758Z,5.60
2023-12-29T18:21:07.495Z,5.18
2023-12-29T18:24:09.131Z,8.75
2023-12-29T18:27:10.925Z,6.40
2023-12-29T18:30:12.531Z,7.90
2023-12-29T18:33:14.566Z,5.78
2023-12-29T18:36:17.083Z,5.60
2023-12-29T18:39:18.776Z,4.40
2023-12-29T18:42:20.395Z,6.68
2023-12-29T18:45:22.144Z,6.28
2023-12-29T18:48:25.379Z,6.45
2023-12-29T18:51:27.316Z,8.00
2023-12-29T18:54:35.095Z,6.95
2023-12-29T18:57:36.699Z,6.22
2023-12-29T19:00:38.356Z,4.85
2023-12-29T19:03:39.994Z,9.25
2023-12-29T19:06:41.640Z,7.25
2023-12-29T19:09:44.318Z,8.05
2023-12-29T19:12:48.622Z,5.50
2023-12-29T19:15:50.614Z,6.22
2023-12-29T19:18:52.447Z,6.05
2023-12-29T19:21:54.531Z,6.30
2023-12-29T19:24:56.240Z,5.32
2023-12-29T19:28:00.668Z,6.40
2023-12-29T19:31:03.866Z,8.38
2023-12-29T19:34:05.916Z,9.75
2023-12-29T19:37:10.096Z,8.18
2023-12-29T19:40:11.791Z,5.47
2023-12-29T19:43:13.476Z,7.28
2023-12-29T19:46:15.145Z,9.32
2023-12-29T19:49:16.869Z,5.53
2023-12-29T19:52:23.129Z,8.55
2023-12-29T19:55:24.852Z,5.88
2023-12-29T19:58:27.067Z,7.88
2023-12-29T20:01:33.499Z,6.80
2023-12-29T20:04:40.436Z,9.05
2023-12-29T20:07:42.042Z,5.13
2023-12-29T20:10:43.666Z,8.85
2023-12-29T20:13:45.697Z,4.80
2023-12-29T20:16:47.771Z,5.68
2023-12-29T20:19:49.487Z,8.45
2023-12-29T20:22:51.163Z,8.25
2023-12-29T20:25:55.561Z,8.60
2023-12-29T20:28:58.023Z,6.80
2023-12-29T20:31:59.625Z,7.13
2023-12-29T20:35:01.394Z,7.93
2023-12-29T20:38:03.872Z,6.43
2023-12-29T20:41:05.827Z,7.90
2023-12-29T20:44:07.714Z,6.70
2023-12-29T20:47:09.318Z,6.90
2023-12-29T20:50:10.936Z,5.35
2023-12-29T20:53:12.527Z,13.65
2023-12-29T20:56:14.147Z,11.05
2023-12-29T20:59:16.180Z,10.63
2023-12-29T21:02:17.782Z,7.45
2023-12-29T21:05:21.143Z,6.50
2023-12-29T21:08:22.988Z,8.23
2023-12-29T21:11:24.609Z,6.60
2023-12-29T21:14:26.227Z,6.80
2023-12-29T21:17:30.182Z,5.18
2023-12-29T21:20:31.893Z,7.03
2023-12-29T21:23:33.504Z,6.40
2023-12-29T21:26:35.159Z,6.65
2023-12-29T21:29:36.768Z,6.90
2023-12-29T21:32:41.229Z,10.02
2023-12-29T21:35:43.684Z,9.32
2023-12-29T21:38:45.421Z,7.18
2023-12-29T21:41:47.017Z,7.22
2023-12-29T21:44:50.220Z,10.98
2023-12-29T21:47:51.938Z,11.35
2023-12-29T21:50:54.135Z,5.82
2023-12-29T21:53:55.796Z,12.23
2023-12-29T21:57:00.163Z,7.07
2023-12-29T22:00:01.780Z,10.35
2023-12-29T22:03:03.941Z,9.63
2023-12-29T22:06:05.788Z,7.60
2023-12-29T22:09:07.401Z,9.70
2023-12-29T22:12:09.499Z,7.22
2023-12-29T22:15:11.052Z,6.63
2023-12-29T22:18:12.812Z,7.05
2023-12-29T22:21:14.587Z,10.30
2023-12-29T22:24:16.188Z,9.07
2023-12-29T22:27:17.773Z,5.32
2023-12-29T22:30:19.482Z,9.18
2023-12-29T22:33:21.219Z,8.18
2023-12-29T22:36:22.880Z,14.88
2023-12-29T22:39:24.883Z,8.40
2023-12-29T22:42:30.686Z,9.85
2023-12-29T22:45:32.742Z,12.45
2023-12-29T22:48:34.393Z,11.45
2023-12-29T22:51:35.985Z,9.38
2023-12-29T22:54:37.574Z,10.82
2023-12-29T22:57:39.136Z,9.90
2023-12-29T23:00:40.796Z,8.02
2023-12-29T23:03:42.425Z,12.73
2023-12-29T23:06:44.064Z,6.70
2023-12-29T23:09:45.913Z,7.32
2023-12-29T23:12:48.079Z,10.25
2023-12-29T23:15:50.651Z,8.68
2023-12-29T23:18:52.480Z,10.25
2023-12-29T23:21:54.126Z,6.80
2023-12-29T23:24:55.823Z,7.38
2023-12-29T23:27:57.488Z,6.97
2023-12-29T23:30:59.224Z,6.82
2023-12-29T23:34:00.955Z,7.68
2023-12-29T23:37:02.655Z,8.65
2023-12-29T23:40:04.284Z,10.00
2023-12-29T23:43:06.127Z,9.85
2023-12-29T23:46:08.010Z,11.00
2023-12-29T23:49:09.921Z,10.65
2023-12-29T23:52:11.767Z,13.68
2023-12-29T23:55:13.402Z,9.45
2023-12-29T23:58:15.014Z,6.50
